createdAt,value
2022-10-03T00:01:00.000Z,3.5
2022-10-03T00:04:32.000Z,3.5
2022-10-03T00:08:05.000Z,3.5
2022-10-03T00:11:37.000Z,3.8
2022-10-03T00:15:10.000Z,3.6
2022-10-03T00:18:43.000Z,3.3
2022-10-03T00:22:15.000Z,3.1
2022-10-03T00:25:07.000Z,3.3
2022-10-03T00:28:39.000Z,3.2
2022-10-03T00:32:12.000Z,3.6
2022-10-03T00:35:44.000Z,3.3
2022-10-03T00:39:17.000Z,3.2
2022-10-03T00:42:50.000Z,3
2022-10-03T00:46:22.000Z,3.1
2022-10-03T00:49:55.000Z,3.2
2022-10-03T00:53:28.000Z,3.3
2022-10-03T00:57:00.000Z,3.3
2022-10-03T01:00:33.000Z,3.1
2022-10-03T01:03:24.000Z,3
2022-10-03T01:06:57.000Z,3.2
2022-10-03T01:10:29.000Z,2.9
2022-10-03T01:14:02.000Z,3.5
2022-10-03T01:17:34.000Z,3.2
2022-10-03T01:21:07.000Z,3.1
2022-10-03T01:24:39.000Z,3.5
2022-10-03T01:28:12.000Z,3.8
2022-10-03T01:31:45.000Z,5.1
2022-10-03T01:35:17.000Z,4.8
2022-10-03T01:38:50.000Z,6.3
2022-10-03T01:41:41.000Z,4.6
2022-10-03T01:45:14.000Z,5.4
2022-10-03T01:48:46.000Z,5
2022-10-03T01:52:19.000Z,3.9
2022-10-03T01:55:52.000Z,3.4
2022-10-03T01:59:24.000Z,2.8
2022-10-03T02:02:57.000Z,3.5
2022-10-03T02:06:30.000Z,2.9
2022-10-03T02:10:02.000Z,3.1
2022-10-03T02:13:35.000Z,3
2022-10-03T02:17:08.000Z,3.1
2022-10-03T02:19:59.000Z,3.1
2022-10-03T02:23:32.000Z,2.7
2022-10-03T02:27:05.000Z,2.8
2022-10-03T02:30:37.000Z,2.4
2022-10-03T02:34:10.000Z,2.4
2022-10-03T02:37:42.000Z,2.5
2022-10-03T02:41:15.000Z,2.7
2022-10-03T02:44:48.000Z,2.8
2022-10-03T02:48:20.000Z,2.6
2022-10-03T02:51:57.000Z,2.6
2022-10-03T02:55:30.000Z,2.9
2022-10-03T02:58:21.000Z,3.7
2022-10-03T03:01:54.000Z,3.2
2022-10-03T03:05:26.000Z,3.7
2022-10-03T03:08:59.000Z,6.1
2022-10-03T03:12:32.000Z,6
2022-10-03T03:16:06.000Z,6.5
2022-10-03T03:19:39.000Z,5.8
2022-10-03T03:23:12.000Z,4.8
2022-10-03T03:26:44.000Z,4.7
2022-10-03T03:30:17.000Z,4.1
2022-10-03T03:33:50.000Z,3.2
2022-10-03T03:36:41.000Z,3.2
2022-10-03T03:40:14.000Z,2.4
2022-10-03T03:43:46.000Z,2.8
2022-10-03T03:47:19.000Z,3
2022-10-03T03:50:52.000Z,3.2
2022-10-03T03:54:24.000Z,2.9
2022-10-03T03:57:57.000Z,2.8
2022-10-03T04:01:29.000Z,3
2022-10-03T04:05:03.000Z,3.1
2022-10-03T04:08:35.000Z,3.5
2022-10-03T04:12:08.000Z,3.1
2022-10-03T04:14:59.000Z,3.3
2022-10-03T04:18:32.000Z,3
2022-10-03T04:22:04.000Z,2.9
2022-10-03T04:25:37.000Z,2.9
2022-10-03T04:29:09.000Z,3.1
2022-10-03T04:32:42.000Z,3.2
2022-10-03T04:36:15.000Z,3
2022-10-03T04:39:48.000Z,2.9
2022-10-03T04:43:20.000Z,2.8
2022-10-03T04:46:53.000Z,2.9
2022-10-03T04:50:25.000Z,3.2
2022-10-03T04:53:16.000Z,2.6
2022-10-03T04:56:49.000Z,2.3
2022-10-03T05:00:22.000Z,2.5
2022-10-03T05:03:54.000Z,2.9
2022-10-03T05:07:27.000Z,10.9
2022-10-03T05:11:00.000Z,8
2022-10-03T05:14:32.000Z,7
2022-10-03T05:18:05.000Z,5.4
2022-10-03T05:21:38.000Z,4.4
2022-10-03T05:25:10.000Z,3.5
2022-10-03T05:28:44.000Z,2.6
2022-10-03T05:31:35.000Z,2.5
2022-10-03T05:35:09.000Z,2.8
2022-10-03T05:38:41.000Z,4.8
2022-10-03T05:42:14.000Z,7.9
2022-10-03T05:45:48.000Z,8.3
2022-10-03T05:49:21.000Z,7.1
2022-10-03T05:52:54.000Z,6.3
2022-10-03T05:56:26.000Z,5.3
2022-10-03T06:00:06.000Z,4.2
2022-10-03T06:03:39.000Z,3.3
2022-10-03T06:07:12.000Z,3.8
2022-10-03T06:10:03.000Z,6.3
2022-10-03T06:13:36.000Z,8.6
2022-10-03T06:17:09.000Z,8.1
2022-10-03T06:20:41.000Z,8
2022-10-03T06:24:14.000Z,6.2
2022-10-03T06:27:47.000Z,7.2
2022-10-03T06:31:19.000Z,6.4
2022-10-03T06:34:57.000Z,6.1
2022-10-03T06:38:30.000Z,6.4
2022-10-03T06:42:08.000Z,5.8
2022-10-03T06:45:41.000Z,9.3
2022-10-03T06:48:32.000Z,9.1
2022-10-03T06:52:05.000Z,7.2
2022-10-03T06:55:37.000Z,7.8
2022-10-03T06:59:10.000Z,8.6
2022-10-03T07:02:43.000Z,8.3
2022-10-03T07:06:15.000Z,7.5
2022-10-03T07:09:48.000Z,6.7
2022-10-03T07:13:20.000Z,6.1
2022-10-03T07:16:53.000Z,5.6
2022-10-03T07:20:26.000Z,4.7
2022-10-03T07:23:58.000Z,4.7
2022-10-03T07:26:50.000Z,4.7
2022-10-03T07:30:23.000Z,4.5
2022-10-03T07:33:55.000Z,3.8
2022-10-03T07:37:28.000Z,5.2
2022-10-03T07:41:00.000Z,7.1
2022-10-03T07:44:33.000Z,4.5
2022-10-03T07:48:06.000Z,5.8
2022-10-03T07:51:38.000Z,5.2
2022-10-03T07:55:11.000Z,5
2022-10-03T07:58:44.000Z,4.6
2022-10-03T08:02:16.000Z,4.8
2022-10-03T08:05:07.000Z,5
2022-10-03T08:08:40.000Z,5.8
2022-10-03T08:12:12.000Z,6.2
2022-10-03T08:15:45.000Z,5.1
2022-10-03T08:19:18.000Z,5.5
2022-10-03T08:22:50.000Z,5.3
2022-10-03T08:26:23.000Z,5.2
2022-10-03T08:29:56.000Z,6.2
2022-10-03T08:33:28.000Z,6.1
2022-10-03T08:37:01.000Z,7.6
2022-10-03T08:40:34.000Z,6.7
2022-10-03T08:43:25.000Z,7.9
2022-10-03T08:46:57.000Z,6.7
2022-10-03T08:50:30.000Z,9.6
2022-10-03T08:54:02.000Z,8.7
2022-10-03T08:57:35.000Z,9.7
2022-10-03T09:01:08.000Z,8.5
2022-10-03T09:04:40.000Z,8.8
2022-10-03T09:08:13.000Z,6.7
2022-10-03T09:11:46.000Z,6.8
2022-10-03T09:15:18.000Z,5.4
2022-10-03T09:18:51.000Z,4.9
2022-10-03T09:21:42.000Z,5.1
2022-10-03T09:25:15.000Z,4.1
2022-10-03T09:28:47.000Z,4.3
2022-10-03T09:32:20.000Z,3.9
2022-10-03T09:35:52.000Z,3.6
2022-10-03T09:39:25.000Z,3
2022-10-03T09:42:58.000Z,3.6
2022-10-03T09:46:31.000Z,3.6
2022-10-03T09:50:08.000Z,3.4
2022-10-03T09:53:41.000Z,3.3
2022-10-03T09:57:13.000Z,3.3
2022-10-03T10:00:06.000Z,2.9
2022-10-03T10:03:39.000Z,3.5
2022-10-03T10:07:12.000Z,3
2022-10-03T10:10:45.000Z,3
2022-10-03T10:14:18.000Z,3.2
2022-10-03T10:17:50.000Z,2.9
2022-10-03T10:21:23.000Z,2.9
2022-10-03T10:24:55.000Z,3
2022-10-03T10:28:28.000Z,3
2022-10-03T10:32:01.000Z,2.2
2022-10-03T10:35:33.000Z,2.2
2022-10-03T10:38:25.000Z,2.3
2022-10-03T10:41:57.000Z,2.2
2022-10-03T10:45:30.000Z,2.2
2022-10-03T10:49:02.000Z,2.5
2022-10-03T10:52:35.000Z,2.6
2022-10-03T10:56:08.000Z,2.7
2022-10-03T10:59:40.000Z,2.6
2022-10-03T11:03:13.000Z,2.9
2022-10-03T11:06:46.000Z,2.5
2022-10-03T11:10:19.000Z,2.5
2022-10-03T11:13:51.000Z,2.5
2022-10-03T11:16:43.000Z,2.3
2022-10-03T11:20:15.000Z,2.2
2022-10-03T11:23:48.000Z,2.3
2022-10-03T11:27:21.000Z,2.3
2022-10-03T11:30:53.000Z,2.1
2022-10-03T11:34:26.000Z,2.4
2022-10-03T11:37:59.000Z,2.4
2022-10-03T11:41:31.000Z,1.9
2022-10-03T11:45:04.000Z,2.1
2022-10-03T11:48:37.000Z,2.1
2022-10-03T11:52:10.000Z,1.8
2022-10-03T11:55:01.000Z,1.7
2022-10-03T11:58:34.000Z,2.6
2022-10-03T12:02:06.000Z,1.9
2022-10-03T12:05:39.000Z,1.9
2022-10-03T12:09:15.000Z,1.9
2022-10-03T12:12:48.000Z,2.2
2022-10-03T12:16:21.000Z,2.1
2022-10-03T12:19:53.000Z,2.3
2022-10-03T12:23:26.000Z,2
2022-10-03T12:26:59.000Z,1.9
2022-10-03T12:30:31.000Z,2.1
2022-10-03T12:33:22.000Z,1.9
2022-10-03T12:36:55.000Z,1.8
2022-10-03T12:40:28.000Z,2.2
2022-10-03T12:44:00.000Z,2.1
2022-10-03T12:47:33.000Z,2.3
2022-10-03T12:51:21.000Z,2.5
2022-10-03T12:54:53.000Z,2.3
2022-10-03T12:58:26.000Z,2.3
2022-10-03T13:01:58.000Z,2.1
2022-10-03T13:05:31.000Z,2
2022-10-03T13:09:04.000Z,2
2022-10-03T13:11:55.000Z,2.1
2022-10-03T13:15:28.000Z,2.5
2022-10-03T13:19:01.000Z,1.8
2022-10-03T13:22:34.000Z,2.1
2022-10-03T13:26:06.000Z,2.3
2022-10-03T13:29:43.000Z,1.9
2022-10-03T13:33:16.000Z,1.9
2022-10-03T13:36:49.000Z,1.9
2022-10-03T13:40:21.000Z,1.9
2022-10-03T13:43:54.000Z,2
2022-10-03T13:47:27.000Z,2.2
2022-10-03T13:50:18.000Z,2.2
2022-10-03T13:53:50.000Z,1.9
2022-10-03T13:57:23.000Z,2.2
2022-10-03T14:00:56.000Z,2.8
2022-10-03T14:04:28.000Z,2.7
2022-10-03T14:08:01.000Z,2.4
2022-10-03T14:11:34.000Z,2.3
2022-10-03T14:15:07.000Z,2.3
2022-10-03T14:18:40.000Z,2.2
2022-10-03T14:22:12.000Z,2.5
2022-10-03T14:25:45.000Z,2.4
2022-10-03T14:28:36.000Z,2.2
2022-10-03T14:32:09.000Z,2.2
2022-10-03T14:36:11.000Z,2.5
2022-10-03T14:39:44.000Z,2.2
2022-10-03T14:43:23.000Z,2.3
2022-10-03T14:46:56.000Z,2.2
2022-10-03T14:50:29.000Z,3.8
2022-10-03T14:54:01.000Z,2.6
2022-10-03T14:57:34.000Z,2.5
2022-10-03T15:01:34.000Z,2.2
2022-10-03T15:05:07.000Z,2.1
2022-10-03T15:07:58.000Z,2.7
2022-10-03T15:11:31.000Z,2.2
2022-10-03T15:15:04.000Z,2.4
2022-10-03T15:18:36.000Z,2.3
2022-10-03T15:22:09.000Z,3.6
2022-10-03T15:25:42.000Z,2.5
2022-10-03T15:29:14.000Z,2.4
2022-10-03T15:32:47.000Z,3
2022-10-03T15:36:19.000Z,3.2
2022-10-03T15:39:52.000Z,3.4
2022-10-03T15:43:25.000Z,3.1
2022-10-03T15:46:16.000Z,3.5
2022-10-03T15:49:49.000Z,3.6
2022-10-03T15:53:22.000Z,5.3
2022-10-03T15:57:10.000Z,10.5
2022-10-03T16:00:43.000Z,9
2022-10-03T16:04:16.000Z,12.2
2022-10-03T16:07:48.000Z,13.1
2022-10-03T16:11:21.000Z,9.1
2022-10-03T16:14:53.000Z,9.7
2022-10-03T16:18:26.000Z,5.3
2022-10-03T16:21:59.000Z,4.6
2022-10-03T16:24:50.000Z,4.1
2022-10-03T16:28:22.000Z,3.1
2022-10-03T16:31:55.000Z,3.1
2022-10-03T16:35:28.000Z,3.3
2022-10-03T16:39:00.000Z,3.7
2022-10-03T16:42:33.000Z,3.6
2022-10-03T16:46:06.000Z,3.9
2022-10-03T16:49:38.000Z,3.4
2022-10-03T16:53:11.000Z,3.7
2022-10-03T16:56:44.000Z,3.4
2022-10-03T17:00:16.000Z,3.3
2022-10-03T17:03:07.000Z,3.3
2022-10-03T17:06:40.000Z,3.4
2022-10-03T17:10:39.000Z,3.2
2022-10-03T17:14:12.000Z,3
2022-10-03T17:17:44.000Z,2.9
2022-10-03T17:21:17.000Z,7.8
2022-10-03T17:24:50.000Z,6.3
2022-10-03T17:28:22.000Z,4.8
2022-10-03T17:31:55.000Z,4.7
2022-10-03T17:35:28.000Z,4
2022-10-03T17:39:01.000Z,5
2022-10-03T17:41:52.000Z,4.3
2022-10-03T17:45:24.000Z,4.2
2022-10-03T17:48:57.000Z,4
2022-10-03T17:52:30.000Z,4.1
2022-10-03T17:56:02.000Z,4.2
2022-10-03T17:59:35.000Z,4
2022-10-03T18:03:07.000Z,4.6
2022-10-03T18:06:40.000Z,13.6
2022-10-03T18:10:13.000Z,11.7
2022-10-03T18:13:45.000Z,5.6
2022-10-03T18:17:18.000Z,4.7
2022-10-03T18:20:09.000Z,4.5
2022-10-03T18:23:42.000Z,6
2022-10-03T18:27:20.000Z,6.5
2022-10-03T18:30:53.000Z,5.9
2022-10-03T18:34:26.000Z,5.4
2022-10-03T18:37:58.000Z,10
2022-10-03T18:41:31.000Z,8.9
2022-10-03T18:45:04.000Z,6.5
2022-10-03T18:48:37.000Z,5.5
2022-10-03T18:52:09.000Z,5.9
2022-10-03T18:55:42.000Z,5.7
2022-10-03T18:58:33.000Z,5.2
2022-10-03T19:02:06.000Z,5
2022-10-03T19:05:38.000Z,4.7
2022-10-03T19:09:11.000Z,9.2
2022-10-03T19:12:44.000Z,6.6
2022-10-03T19:16:16.000Z,6.9
2022-10-03T19:19:49.000Z,6.8
2022-10-03T19:23:24.000Z,6.8
2022-10-03T19:26:58.000Z,4.9
2022-10-03T19:30:30.000Z,6
2022-10-03T19:34:03.000Z,5.5
2022-10-03T19:36:54.000Z,5.1
2022-10-03T19:40:27.000Z,5.7
2022-10-03T19:44:00.000Z,13.9
2022-10-03T19:47:32.000Z,17
2022-10-03T19:51:05.000Z,6.9
2022-10-03T19:56:52.000Z,5
2022-10-03T20:00:24.000Z,4.2
2022-10-03T20:03:57.000Z,5.4
2022-10-03T20:07:30.000Z,5.4
2022-10-03T20:11:02.000Z,6.1
2022-10-03T20:14:41.000Z,6
2022-10-03T20:17:26.000Z,5.2
2022-10-03T20:20:59.000Z,5.3
2022-10-03T20:24:31.000Z,4.6
2022-10-03T20:28:08.000Z,4.8
2022-10-03T20:31:41.000Z,4.5
2022-10-03T20:35:14.000Z,5
2022-10-03T20:38:46.000Z,4.9
2022-10-03T20:42:19.000Z,4.6
2022-10-03T20:45:51.000Z,4.5
2022-10-03T20:49:24.000Z,4.9
2022-10-03T20:52:57.000Z,4.8
2022-10-03T20:55:48.000Z,5
2022-10-03T20:59:21.000Z,5
2022-10-03T21:02:53.000Z,4.9
2022-10-03T21:06:26.000Z,4.9
2022-10-03T21:09:59.000Z,5
2022-10-03T21:13:31.000Z,5
2022-10-03T21:17:04.000Z,5.2
2022-10-03T21:20:36.000Z,5.1
2022-10-03T21:24:09.000Z,5.5
2022-10-03T21:27:42.000Z,5.1
2022-10-03T21:31:15.000Z,4.8
2022-10-03T21:34:06.000Z,5.4
2022-10-03T21:37:38.000Z,5.2
2022-10-03T21:41:11.000Z,5.7
2022-10-03T21:44:44.000Z,5.3
2022-10-03T21:48:16.000Z,5.6
2022-10-03T21:51:49.000Z,5.5
2022-10-03T21:55:22.000Z,5.1
2022-10-03T21:59:16.000Z,5.3
2022-10-03T22:02:49.000Z,5.1
2022-10-03T22:06:22.000Z,5.5
2022-10-03T22:09:54.000Z,6.1
2022-10-03T22:12:45.000Z,6.2
2022-10-03T22:16:18.000Z,5.9
2022-10-03T22:19:51.000Z,5.6
2022-10-03T22:23:23.000Z,5.8
2022-10-03T22:26:56.000Z,5.7
2022-10-03T22:30:29.000Z,5.5
2022-10-03T22:34:01.000Z,6
2022-10-03T22:37:34.000Z,5.1
2022-10-03T22:41:06.000Z,5.5
2022-10-03T22:44:39.000Z,5.4
2022-10-03T22:48:12.000Z,5.2
2022-10-03T22:51:03.000Z,5.7
2022-10-03T22:54:36.000Z,5
2022-10-03T22:58:08.000Z,5.2
2022-10-03T23:01:41.000Z,5.7
2022-10-03T23:05:13.000Z,5.3
2022-10-03T23:08:46.000Z,5.2
2022-10-03T23:12:19.000Z,5.3
2022-10-03T23:15:51.000Z,5
2022-10-03T23:19:24.000Z,4.8
2022-10-03T23:22:57.000Z,5.2
2022-10-03T23:26:29.000Z,5.6
2022-10-03T23:29:21.000Z,5
2022-10-03T23:32:53.000Z,5.6
2022-10-03T23:36:26.000Z,4.8
2022-10-03T23:39:59.000Z,5.5
2022-10-03T23:43:31.000Z,5.3
2022-10-03T23:47:04.000Z,5.7
2022-10-03T23:50:36.000Z,5.5
2022-10-03T23:54:09.000Z,5.1
2022-10-03T23:57:42.000Z,5.1
